West Lake Hills, Texas
Current Conditions -  °F | °C
As of 9:51 AM on Thursday 27 Nov 2014 (Local Time) from KATT Reporting Station
Clear Clear  
Wind Chill: 53°   Ceiling: Unl
Heat Index: 53°   Visibility: 10mi
Dew Point: 29°   Wind: 6mph
Humidity: 40%   Direction: NA
Pressure: 30.55"   Gusts: NA
Location:  30.2958°N, 97.8101°W
Report Text: KATT 271551Z AUTO VRB05KT 10SM CLR 12/M02 A3055 RMK AO2 SLP346 T01171017
Loading
Personal Weather Stations






























Interactive Weather Map New forecast layout! Learn more

10-Day Weather Forecast

Advertisements
Track Severe Weather on mobile